createdAt,value
2018-10-17T00:00:49.004Z,71.13
2018-10-17T00:03:38.027Z,72.69
2018-10-17T00:06:25.420Z,72.01
2018-10-17T00:18:31.098Z,74.16
2018-10-17T00:24:26.095Z,75.17
2018-10-17T00:27:13.718Z,75.11
2018-10-17T00:36:16.389Z,75.12
2018-10-17T00:39:07.396Z,75.07
2018-10-17T00:41:55.383Z,75.20
2018-10-17T00:44:42.841Z,75.66
2018-10-17T00:47:30.959Z,75.39
2018-10-17T00:53:32.952Z,75.04
2018-10-17T00:59:27.783Z,76.42
2018-10-17T01:02:15.177Z,76.63
2018-10-17T01:08:09.042Z,76.79
2018-10-17T01:10:56.235Z,77.01
2018-10-17T01:16:52.114Z,78.16
2018-10-17T01:19:54.910Z,78.20
2018-10-17T01:25:48.823Z,77.82
2018-10-17T01:28:44.448Z,78.22
2018-10-17T01:34:53.609Z,77.27
2018-10-17T01:37:40.958Z,78.65
2018-10-17T01:43:36.318Z,79.42
2018-10-17T01:46:24.022Z,78.86
2018-10-17T01:52:31.409Z,78.00
2018-10-17T01:58:24.687Z,78.29
2018-10-17T02:07:24.938Z,79.55
2018-10-17T02:16:40.193Z,79.96
2018-10-17T02:19:35.346Z,80.02
2018-10-17T02:25:28.999Z,78.57
2018-10-17T02:34:33.107Z,78.13
2018-10-17T02:37:28.115Z,77.94
2018-10-17T02:40:16.491Z,78.07
2018-10-17T02:43:12.173Z,78.17
2018-10-17T02:45:59.915Z,78.01
2018-10-17T02:51:55.480Z,77.30
2018-10-17T02:57:49.855Z,77.31
2018-10-17T03:00:40.725Z,78.87
2018-10-17T03:03:27.764Z,79.78
2018-10-17T03:15:36.070Z,80.80
2018-10-17T03:18:25.034Z,80.23
2018-10-17T03:21:12.628Z,79.90
2018-10-17T03:36:35.047Z,78.71
2018-10-17T03:39:37.491Z,78.25
2018-10-17T03:42:25.072Z,79.80
2018-10-17T03:57:39.520Z,82.54
2018-10-17T04:00:26.937Z,82.79
2018-10-17T04:09:37.952Z,83.26
2018-10-17T04:12:25.191Z,83.31
2018-10-17T04:15:26.371Z,83.20
2018-10-17T04:18:13.760Z,83.12
2018-10-17T04:21:01.404Z,81.86
2018-10-17T04:23:49.749Z,80.95
2018-10-17T04:32:51.294Z,81.68
2018-10-17T04:35:43.501Z,79.42
2018-10-17T04:38:32.066Z,77.71
2018-10-17T04:41:20.172Z,76.78
2018-10-17T04:44:07.716Z,77.70
2018-10-17T04:50:01.827Z,77.92
2018-10-17T04:52:50.788Z,78.47
2018-10-17T04:58:48.767Z,80.56
2018-10-17T05:04:45.529Z,81.86
2018-10-17T05:07:33.006Z,82.43
2018-10-17T05:10:21.577Z,82.67
2018-10-17T05:13:09.203Z,83.09
2018-10-17T05:15:58.625Z,83.09
2018-10-17T05:18:47.057Z,82.74
2018-10-17T05:21:49.665Z,82.07
2018-10-17T05:24:39.151Z,81.43
2018-10-17T05:33:42.894Z,80.93
2018-10-17T05:36:30.673Z,80.67
2018-10-17T05:39:17.951Z,79.23
2018-10-17T05:42:05.181Z,79.85
2018-10-17T05:44:57.039Z,78.60
2018-10-17T05:47:44.666Z,79.48
2018-10-17T05:50:33.407Z,80.07
2018-10-17T05:53:22.646Z,80.10
2018-10-17T05:56:17.902Z,80.08
2018-10-17T05:59:07.829Z,80.17
2018-10-17T06:08:10.298Z,79.97
2018-10-17T06:10:58.820Z,80.20
2018-10-17T06:16:52.746Z,80.32
2018-10-17T06:19:56.616Z,80.62
2018-10-17T06:22:45.034Z,81.54
2018-10-17T06:25:32.594Z,82.25
2018-10-17T06:28:22.885Z,82.51
2018-10-17T06:31:10.276Z,82.66
2018-10-17T06:33:58.180Z,82.70
2018-10-17T06:39:52.691Z,81.50
2018-10-17T06:42:42.243Z,82.05
2018-10-17T06:45:30.167Z,82.29
2018-10-17T06:48:18.035Z,82.46
2018-10-17T06:51:06.021Z,82.28
2018-10-17T06:53:53.376Z,82.20
2018-10-17T06:56:40.902Z,80.44
2018-10-17T07:08:48.865Z,79.50
2018-10-17T07:11:39.553Z,77.68
2018-10-17T07:14:28.062Z,78.67
2018-10-17T07:17:18.741Z,76.85
2018-10-17T07:20:06.694Z,77.84
2018-10-17T07:32:21.219Z,79.38
2018-10-17T07:35:08.811Z,79.59
2018-10-17T07:37:57.353Z,80.00
2018-10-17T07:43:51.646Z,77.58
2018-10-17T07:46:39.221Z,78.17
2018-10-17T07:49:27.506Z,76.45
2018-10-17T07:52:15.849Z,75.52
2018-10-17T08:07:38.594Z,78.16
2018-10-17T08:10:26.653Z,75.79
2018-10-17T08:13:14.228Z,74.15
2018-10-17T08:19:17.415Z,76.42
2018-10-17T08:22:07.220Z,76.47
2018-10-17T08:31:06.999Z,76.29
2018-10-17T08:33:57.446Z,76.15
2018-10-17T08:36:54.244Z,76.03
2018-10-17T08:42:48.049Z,75.67
2018-10-17T08:45:35.585Z,75.50
2018-10-17T08:48:22.837Z,75.40
2018-10-17T08:51:12.692Z,74.96
2018-10-17T08:54:02.316Z,71.21
2018-10-17T08:59:57.139Z,72.25
2018-10-17T09:06:01.335Z,71.44
2018-10-17T09:08:49.926Z,71.01
2018-10-17T09:11:39.164Z,70.54
2018-10-17T09:14:29.702Z,70.73
2018-10-17T09:17:17.714Z,70.64
2018-10-17T09:20:06.348Z,70.40
2018-10-17T09:22:53.519Z,65.29
2018-10-17T09:25:43.789Z,62.90
2018-10-17T09:28:33.088Z,66.00
2018-10-17T09:31:24.649Z,67.04
2018-10-17T09:34:14.301Z,66.83
2018-10-17T09:37:02.727Z,66.00
2018-10-17T09:39:52.152Z,66.37
2018-10-17T09:42:39.311Z,66.58
2018-10-17T09:45:28.054Z,66.26
2018-10-17T09:48:15.817Z,65.82
2018-10-17T09:51:03.561Z,65.75
2018-10-17T09:53:51.544Z,65.45
2018-10-17T09:56:38.837Z,65.13
2018-10-17T09:59:26.259Z,64.79
2018-10-17T10:02:16.362Z,59.39
2018-10-17T10:05:05.408Z,62.25
2018-10-17T10:07:52.852Z,62.58
2018-10-17T10:10:42.714Z,63.07
2018-10-17T10:13:30.407Z,63.01
2018-10-17T10:16:18.854Z,62.61
2018-10-17T10:19:07.122Z,62.73
2018-10-17T10:21:54.921Z,62.63
2018-10-17T10:24:42.382Z,61.49
2018-10-17T10:27:31.109Z,61.74
2018-10-17T10:30:18.657Z,62.15
2018-10-17T10:36:13.839Z,57.46
2018-10-17T10:39:02.075Z,56.37
2018-10-17T10:41:49.375Z,57.91
2018-10-17T10:44:41.898Z,59.58
2018-10-17T10:47:29.970Z,59.90
2018-10-17T10:50:18.720Z,59.92
2018-10-17T10:53:07.033Z,60.04
2018-10-17T10:55:55.379Z,59.83
2018-10-17T10:58:45.071Z,59.77
2018-10-17T11:01:32.562Z,59.63
2018-10-17T11:04:20.722Z,58.27
2018-10-17T11:07:10.811Z,59.14
2018-10-17T11:09:58.124Z,59.53
2018-10-17T11:12:45.548Z,55.72
2018-10-17T11:18:38.991Z,58.67
2018-10-17T11:21:26.900Z,58.30
2018-10-17T11:24:14.286Z,58.85
2018-10-17T11:27:01.497Z,57.49
2018-10-17T11:29:49.289Z,58.57
2018-10-17T11:32:37.386Z,57.62
2018-10-17T11:35:24.600Z,56.21
2018-10-17T11:38:13.340Z,51.65
2018-10-17T11:41:00.951Z,54.63
2018-10-17T11:43:48.183Z,55.32
2018-10-17T11:46:35.462Z,51.72
2018-10-17T11:49:22.828Z,53.86
2018-10-17T11:52:11.059Z,54.04
2018-10-17T11:54:59.218Z,53.75
2018-10-17T11:57:46.881Z,54.40
2018-10-17T12:00:34.201Z,54.10
2018-10-17T12:03:22.187Z,54.30
2018-10-17T12:06:09.688Z,54.47
2018-10-17T12:08:59.703Z,54.01
2018-10-17T12:11:48.060Z,47.34
2018-10-17T12:14:35.438Z,49.04
2018-10-17T12:17:22.909Z,49.94
2018-10-17T12:20:10.513Z,49.62
2018-10-17T12:22:59.936Z,50.33
2018-10-17T12:25:47.343Z,50.47
2018-10-17T12:28:34.871Z,50.00
2018-10-17T12:31:22.807Z,50.23
2018-10-17T12:34:10.228Z,50.11
2018-10-17T12:36:57.676Z,49.87
2018-10-17T12:39:45.028Z,50.11
2018-10-17T12:42:32.665Z,50.48
2018-10-17T12:45:22.710Z,50.49
2018-10-17T12:48:09.964Z,50.59
2018-10-17T12:50:57.549Z,50.58
2018-10-17T12:53:45.333Z,50.14
2018-10-17T12:56:34.767Z,45.33
2018-10-17T12:59:22.171Z,47.75
2018-10-17T13:02:09.585Z,48.72
2018-10-17T13:04:59.602Z,43.98
2018-10-17T13:07:49.691Z,45.96
2018-10-17T13:10:36.805Z,47.19
2018-10-17T13:13:24.561Z,47.85
2018-10-17T13:16:15.673Z,43.29
2018-10-17T13:19:05.426Z,46.23
2018-10-17T13:21:53.926Z,46.82
2018-10-17T13:24:41.609Z,46.83
2018-10-17T13:27:28.535Z,47.14
2018-10-17T13:30:16.671Z,47.31
2018-10-17T13:33:04.198Z,47.58
2018-10-17T13:35:51.543Z,43.83
2018-10-17T13:38:49.143Z,46.45
2018-10-17T13:41:36.261Z,46.67
2018-10-17T13:44:23.451Z,47.48
2018-10-17T13:47:11.177Z,47.62
2018-10-17T13:50:03.162Z,47.29
2018-10-17T13:52:50.857Z,47.27
2018-10-17T13:55:38.924Z,47.66
2018-10-17T13:58:27.369Z,47.79
2018-10-17T14:04:20.538Z,48.39
2018-10-17T14:07:09.978Z,48.68
2018-10-17T14:09:57.293Z,48.66
2018-10-17T14:12:46.537Z,48.42
2018-10-17T14:15:33.773Z,48.42
2018-10-17T14:18:22.508Z,47.91
2018-10-17T14:21:11.750Z,47.80
2018-10-17T14:23:59.411Z,47.62
2018-10-17T14:26:47.774Z,47.51
2018-10-17T14:29:35.309Z,47.68
2018-10-17T14:32:24.699Z,47.79
2018-10-17T14:35:13.898Z,47.80
2018-10-17T14:38:01.209Z,47.81
2018-10-17T14:43:55.928Z,46.78
2018-10-17T14:46:43.448Z,47.48
2018-10-17T14:49:31.017Z,45.01
2018-10-17T14:55:24.913Z,47.57
2018-10-17T14:58:12.148Z,47.48
2018-10-17T15:01:03.682Z,45.33
2018-10-17T15:03:51.208Z,47.51
2018-10-17T15:06:38.841Z,48.36
2018-10-17T15:09:34.019Z,46.47
2018-10-17T15:12:21.540Z,48.53
2018-10-17T15:15:09.083Z,48.93
2018-10-17T15:17:58.781Z,49.27
2018-10-17T15:20:47.918Z,49.70
2018-10-17T15:23:38.052Z,50.10
2018-10-17T15:29:32.520Z,50.41
2018-10-17T15:32:22.895Z,48.80
2018-10-17T15:38:16.813Z,51.16
2018-10-17T15:41:04.922Z,51.63
2018-10-17T15:43:52.648Z,51.88
2018-10-17T15:46:55.046Z,52.08
2018-10-17T15:49:44.989Z,52.24
2018-10-17T15:52:32.705Z,52.46
2018-10-17T15:58:29.348Z,53.73
2018-10-17T16:04:22.640Z,54.20
2018-10-17T16:07:25.980Z,54.53
2018-10-17T16:10:15.525Z,54.74
2018-10-17T16:16:16.975Z,54.90
2018-10-17T16:22:11.100Z,55.58
2018-10-17T16:24:58.311Z,55.88
2018-10-17T16:27:45.788Z,54.69
2018-10-17T16:30:35.404Z,56.22
2018-10-17T16:33:22.977Z,56.52
2018-10-17T16:36:19.954Z,57.06
2018-10-17T16:39:17.803Z,57.21
2018-10-17T16:42:05.098Z,57.74
2018-10-17T16:48:02.869Z,55.26
2018-10-17T16:53:56.615Z,57.12
2018-10-17T16:56:51.810Z,55.75
2018-10-17T17:02:45.718Z,57.72
2018-10-17T17:05:33.923Z,58.10
2018-10-17T17:08:29.154Z,58.52
2018-10-17T17:11:17.468Z,58.06
2018-10-17T17:17:10.686Z,59.78
2018-10-17T17:19:58.670Z,60.03
2018-10-17T17:22:46.369Z,60.30
2018-10-17T17:25:37.017Z,60.42
2018-10-17T17:31:30.983Z,60.89
2018-10-17T17:34:20.457Z,60.60
2018-10-17T17:37:08.066Z,61.64
2018-10-17T17:39:55.422Z,61.58
2018-10-17T17:42:42.891Z,62.04
2018-10-17T17:45:48.542Z,62.40
2018-10-17T17:48:52.166Z,61.60
2018-10-17T17:51:41.728Z,62.73
2018-10-17T17:54:31.112Z,62.61
2018-10-17T17:57:18.704Z,62.53
2018-10-17T18:00:06.967Z,63.38
2018-10-17T18:02:55.429Z,63.30
2018-10-17T18:05:42.506Z,63.29
2018-10-17T18:08:30.783Z,63.40
2018-10-17T18:14:24.972Z,63.81
2018-10-17T18:17:12.199Z,63.79
2018-10-17T18:19:59.446Z,64.38
2018-10-17T18:22:46.925Z,65.01
2018-10-17T18:25:34.755Z,65.32
2018-10-17T18:28:21.985Z,65.63
2018-10-17T18:37:25.426Z,66.46
2018-10-17T18:46:34.109Z,66.91
2018-10-17T18:49:24.458Z,66.58
2018-10-17T18:52:12.148Z,67.24
2018-10-17T18:55:08.208Z,67.29
2018-10-17T18:57:57.711Z,66.92
2018-10-17T19:00:45.018Z,67.46
2018-10-17T19:03:32.971Z,67.77
2018-10-17T19:06:20.989Z,67.43
2018-10-17T19:09:08.902Z,67.24
2018-10-17T19:12:03.820Z,67.46
2018-10-17T19:14:51.488Z,67.77
2018-10-17T19:17:38.605Z,67.89
2018-10-17T19:20:32.857Z,68.02
2018-10-17T19:23:21.595Z,67.89
2018-10-17T19:26:11.191Z,67.80
2018-10-17T19:28:59.759Z,68.37
2018-10-17T19:31:48.182Z,68.23
2018-10-17T19:34:36.161Z,68.73
2018-10-17T19:37:25.035Z,67.41
2018-10-17T19:40:12.757Z,68.76
2018-10-17T19:43:01.894Z,68.71
2018-10-17T19:45:52.156Z,69.01
2018-10-17T19:48:45.129Z,69.10
2018-10-17T19:51:39.102Z,69.47
2018-10-17T19:54:26.935Z,69.69
2018-10-17T19:57:25.260Z,69.38
2018-10-17T20:00:15.267Z,70.41
2018-10-17T20:03:13.348Z,70.14
2018-10-17T20:12:12.809Z,69.80
2018-10-17T20:15:00.331Z,68.53
2018-10-17T20:24:13.515Z,70.82
2018-10-17T20:27:09.179Z,71.34
2018-10-17T20:42:22.996Z,70.25
2018-10-17T20:45:12.355Z,70.20
2018-10-17T20:51:09.141Z,70.89
2018-10-17T20:53:57.215Z,70.83
2018-10-17T20:56:46.120Z,70.11
2018-10-17T20:59:45.597Z,71.60
2018-10-17T21:02:44.034Z,70.67
2018-10-17T21:05:31.661Z,72.36
2018-10-17T21:08:19.658Z,72.51
2018-10-17T21:11:10.439Z,72.23
2018-10-17T21:14:00.279Z,70.49
2018-10-17T21:16:47.683Z,71.44
2018-10-17T21:19:35.024Z,71.57
2018-10-17T21:22:22.399Z,71.50
2018-10-17T21:25:11.789Z,71.69
2018-10-17T21:28:02.107Z,71.76
2018-10-17T21:30:49.473Z,72.24
2018-10-17T21:33:38.337Z,72.34
2018-10-17T21:36:26.960Z,72.60
2018-10-17T21:39:14.702Z,73.03
2018-10-17T21:42:02.970Z,72.97
2018-10-17T21:44:50.725Z,72.97
2018-10-17T21:47:38.232Z,72.94
2018-10-17T21:50:25.807Z,73.20
2018-10-17T21:53:13.313Z,73.45
2018-10-17T21:56:00.739Z,71.82
2018-10-17T22:02:00.415Z,71.84
2018-10-17T22:04:54.568Z,72.29
2018-10-17T22:07:53.401Z,72.34
2018-10-17T22:10:41.908Z,72.46
2018-10-17T22:16:35.683Z,73.20
2018-10-17T22:19:24.598Z,73.58
2018-10-17T22:22:11.942Z,73.31
2018-10-17T22:28:08.201Z,73.61
2018-10-17T22:30:55.523Z,73.60
2018-10-17T22:33:43.711Z,73.49
2018-10-17T22:36:31.921Z,73.55
2018-10-17T22:39:19.263Z,74.52
2018-10-17T22:42:07.432Z,72.47
2018-10-17T22:44:54.713Z,73.18
2018-10-17T22:47:43.024Z,73.49
2018-10-17T22:50:34.471Z,73.86
2018-10-17T22:53:22.913Z,73.62
2018-10-17T22:56:11.554Z,73.67
2018-10-17T22:58:59.340Z,73.83
2018-10-17T23:01:46.986Z,73.57
2018-10-17T23:04:35.478Z,71.76
2018-10-17T23:07:30.839Z,72.93
2018-10-17T23:10:18.016Z,73.30
2018-10-17T23:13:12.780Z,71.80
2018-10-17T23:16:01.482Z,72.85
2018-10-17T23:18:49.028Z,73.50
2018-10-17T23:21:40.061Z,74.16
2018-10-17T23:24:42.633Z,72.50
2018-10-17T23:27:30.019Z,75.05
2018-10-17T23:30:17.512Z,74.75
2018-10-17T23:33:05.928Z,74.32
2018-10-17T23:35:54.168Z,74.13
2018-10-17T23:38:44.632Z,74.13
2018-10-17T23:41:33.480Z,75.49
2018-10-17T23:44:23.233Z,75.27
2018-10-17T23:47:12.830Z,73.44
2018-10-17T23:50:01.063Z,72.93
2018-10-17T23:55:55.544Z,74.48
2018-10-17T23:58:44.052Z,75.00
